Time;durP1;ratioP1;P1;durP2;ratioP2;P2;SDS_P1;SDS_P2;PMS_P1;PMS_P2;Temp;Humidity;BMP_temperature;BMP_pressure;BME280_temperature;BME280_humidity;BME280_pressure;Samples;Min_cycle;Max_cycle;Signal;HPM_P1;HPM_P2
2024/03/20 00:00:17;;;;;;;10.90;7.63;;;;;;;9.82;67.62;96505.06;4988070;28;20250;-69
2024/03/20 00:02:48;;;;;;;8.13;7.10;;;;;;;9.74;67.97;96496.66;4987853;28;20688;-71
2024/03/20 00:05:15;;;;;;;7.33;6.40;;;;;;;9.77;67.69;96491.28;4996580;28;20411;-70
2024/03/20 00:07:41;;;;;;;9.90;6.77;;;;;;;9.87;67.05;96502.25;4990849;28;20447;-74
2024/03/20 00:10:07;;;;;;;11.27;7.50;;;;;;;9.86;67.16;96495.31;4987804;28;20883;-70
2024/03/20 00:12:33;;;;;;;10.83;9.73;;;;;;;9.77;67.23;96491.28;4987301;28;20183;-70
2024/03/20 00:14:59;;;;;;;9.10;7.13;;;;;;;9.76;67.83;96494.84;4987109;28;20188;-70
2024/03/20 00:17:24;;;;;;;11.00;7.20;;;;;;;9.81;67.02;96492.88;4986874;28;20440;-71
2024/03/20 00:19:50;;;;;;;9.57;7.23;;;;;;;9.65;67.56;96497.00;4986554;28;20295;-70
2024/03/20 00:22:16;;;;;;;7.80;5.77;;;;;;;9.66;67.79;96494.34;4987123;28;20367;-70
2024/03/20 00:24:42;;;;;;;8.27;6.70;;;;;;;9.48;67.88;96495.03;4987437;28;20404;-70
2024/03/20 00:27:07;;;;;;;7.50;6.20;;;;;;;9.62;67.86;96494.53;4987648;28;20372;-69
2024/03/20 00:29:33;;;;;;;7.63;6.93;;;;;;;9.70;67.50;96487.22;4987689;28;20256;-68
2024/03/20 00:31:58;;;;;;;6.93;6.33;;;;;;;9.70;67.22;96484.59;4987201;28;20173;-71
2024/03/20 00:34:23;;;;;;;7.20;6.50;;;;;;;9.66;67.09;96483.00;4987347;28;20272;-69
2024/03/20 00:36:49;;;;;;;8.90;6.87;;;;;;;9.65;67.35;96487.38;4987069;28;20184;-70
2024/03/20 00:39:15;;;;;;;7.17;6.03;;;;;;;9.56;67.90;96479.88;4986948;28;20201;-71
2024/03/20 00:41:40;;;;;;;8.00;6.73;;;;;;;9.61;67.40;96477.94;4986687;28;20184;-70
2024/03/20 00:44:06;;;;;;;9.33;7.23;;;;;;;9.58;67.65;96479.81;4986595;28;20169;-69
2024/03/20 00:46:31;;;;;;;8.10;5.97;;;;;;;9.52;67.72;96479.16;4986473;28;20177;-67
2024/03/20 00:48:57;;;;;;;7.70;6.90;;;;;;;9.52;67.85;96475.69;4986758;28;20751;-69
2024/03/20 00:51:22;;;;;;;9.73;5.97;;;;;;;9.32;68.03;96471.19;4986751;28;20173;-71
2024/03/20 00:53:47;;;;;;;7.57;6.80;;;;;;;9.30;68.04;96475.63;4988718;28;20173;-69
2024/03/20 00:56:13;;;;;;;10.10;6.27;;;;;;;9.39;67.95;96467.44;4990604;28;20267;-70
2024/03/20 00:58:39;;;;;;;7.43;6.40;;;;;;;9.42;67.50;96466.47;4990744;28;20200;-70
2024/03/20 01:01:04;;;;;;;7.93;6.73;;;;;;;9.38;67.68;96467.47;4990176;28;20518;-69
2024/03/20 01:03:29;;;;;;;12.37;7.30;;;;;;;9.46;67.45;96462.81;4990405;28;20698;-69
2024/03/20 01:05:55;;;;;;;7.63;6.30;;;;;;;9.39;67.64;96466.59;4990401;28;20173;-70
2024/03/20 01:08:21;;;;;;;8.33;6.50;;;;;;;9.14;68.11;96464.88;4990116;28;20195;-71
2024/03/20 01:10:47;;;;;;;15.03;8.90;;;;;;;9.18;68.51;96458.63;4990059;28;20248;-70
2024/03/20 01:13:12;;;;;;;6.57;5.67;;;;;;;9.23;68.04;96463.69;4989794;28;21035;-69
2024/03/20 01:15:38;;;;;;;8.50;6.47;;;;;;;9.23;68.12;96471.53;4990044;28;20708;-68
2024/03/20 01:18:03;;;;;;;7.93;6.43;;;;;;;9.21;68.10;96470.75;4989646;28;20716;-70
2024/03/20 01:20:30;;;;;;;9.47;5.90;;;;;;;9.21;67.86;96465.50;4989682;28;20201;-70
2024/03/20 01:22:56;;;;;;;9.20;6.90;;;;;;;9.13;67.90;96460.56;4989352;28;20181;-68
2024/03/20 01:25:21;;;;;;;7.30;6.60;;;;;;;9.23;67.91;96463.69;4989672;28;20491;-70
2024/03/20 01:27:46;;;;;;;8.07;6.17;;;;;;;9.11;68.32;96465.00;4989796;28;21215;-69
2024/03/20 01:30:12;;;;;;;8.67;6.83;;;;;;;9.04;68.69;96466.97;4989504;28;20177;-70
2024/03/20 01:32:38;;;;;;;7.50;6.80;;;;;;;8.76;69.05;96468.88;5004238;28;20184;-71
2024/03/20 01:35:04;;;;;;;9.40;6.23;;;;;;;8.43;70.83;96463.91;4989648;28;20645;-70
2024/03/20 01:37:30;;;;;;;10.10;6.00;;;;;;;8.69;69.10;96461.28;4989686;28;20200;-71
2024/03/20 01:39:55;;;;;;;6.33;5.70;;;;;;;8.75;68.88;96462.81;4989402;28;20459;-68
2024/03/20 01:42:21;;;;;;;10.23;6.90;;;;;;;8.87;68.66;96467.59;4989171;28;20270;-70
2024/03/20 01:44:46;;;;;;;9.20;6.63;;;;;;;8.71;68.89;96450.72;5020272;28;20177;-70
2024/03/20 01:47:12;;;;;;;7.37;6.53;;;;;;;8.84;69.42;96452.00;4988658;28;20236;-71
2024/03/20 01:49:38;;;;;;;8.63;6.10;;;;;;;8.78;69.21;96457.44;4988905;28;20649;-70
2024/03/20 01:52:06;;;;;;;6.33;5.70;;;;;;;8.80;69.36;96458.25;4988998;28;20176;-69
2024/03/20 01:54:32;;;;;;;6.63;6.03;;;;;;;8.93;68.56;96456.06;4988828;28;20177;-70
2024/03/20 01:56:57;;;;;;;8.40;6.30;;;;;;;8.90;68.54;96453.53;4988984;28;20416;-69
2024/03/20 01:59:23;;;;;;;6.80;6.07;;;;;;;8.87;68.28;96441.41;4987484;28;20482;-69
2024/03/20 02:01:48;;;;;;;8.00;6.87;;;;;;;8.73;68.93;96445.47;4988485;28;20186;-71
2024/03/20 02:04:13;;;;;;;8.43;6.10;;;;;;;8.76;68.78;96442.72;4988463;28;20176;-70
2024/03/20 02:06:39;;;;;;;8.03;7.23;;;;;;;8.68;68.91;96446.47;4990480;28;20184;-71
2024/03/20 02:09:05;;;;;;;8.00;6.23;;;;;;;8.63;69.35;96452.78;4992490;28;20188;-71
2024/03/20 02:11:31;;;;;;;10.90;7.00;;;;;;;8.60;69.68;96442.44;4991407;28;20181;-68
2024/03/20 02:13:57;;;;;;;10.20;6.90;;;;;;;8.72;68.79;96448.97;4988874;28;20169;-70
2024/03/20 02:16:24;;;;;;;9.60;6.40;;;;;;;8.62;68.77;96451.94;4988631;28;20424;-70
2024/03/20 02:18:51;;;;;;;6.87;6.17;;;;;;;8.68;68.84;96449.09;4988600;28;20566;-70
2024/03/20 02:21:21;;;;;;;8.80;7.10;;;;;;;8.73;68.51;96451.53;4988790;28;20507;-70
2024/03/20 02:23:47;;;;;;;9.70;6.30;;;;;;;8.52;69.03;96449.69;4988346;28;20408;-70
2024/03/20 02:26:13;;;;;;;6.83;6.13;;;;;;;8.72;68.13;96452.47;4988527;28;20412;-70
2024/03/20 02:28:40;;;;;;;6.90;6.10;;;;;;;8.58;69.11;96450.31;4988465;28;20436;-71
2024/03/20 02:31:11;;;;;;;7.63;6.20;;;;;;;8.60;68.54;96448.53;4987948;28;20169;-68
2024/03/20 02:33:37;;;;;;;8.77;6.27;;;;;;;8.54;68.22;96461.78;4988721;28;20415;-70
2024/03/20 02:36:04;;;;;;;9.53;7.73;;;;;;;8.53;68.53;96448.75;4988615;28;20444;-69
2024/03/20 02:38:34;;;;;;;10.40;6.63;;;;;;;8.47;68.23;96445.47;4988108;28;20498;-71
2024/03/20 02:41:00;;;;;;;9.57;6.67;;;;;;;8.51;68.86;96451.44;4987969;28;20455;-70
2024/03/20 02:43:27;;;;;;;7.53;6.63;;;;;;;8.59;68.41;96448.56;4987962;28;20416;-69
2024/03/20 02:45:53;;;;;;;6.57;5.97;;;;;;;8.54;68.30;96453.94;4988003;28;20169;-70
2024/03/20 02:48:18;;;;;;;9.80;7.47;;;;;;;8.50;68.13;96452.34;4988073;28;20490;-69
2024/03/20 02:50:44;;;;;;;6.73;6.13;;;;;;;8.50;68.04;96454.09;4988073;28;20705;-69
2024/03/20 02:53:09;;;;;;;6.97;6.23;;;;;;;8.51;67.97;96458.44;4987754;28;20168;-70
2024/03/20 02:55:37;;;;;;;7.03;6.33;;;;;;;8.40;68.83;96457.03;4988294;28;20173;-70
2024/03/20 02:58:03;;;;;;;10.87;6.60;;;;;;;8.39;68.52;96451.84;4988016;28;20219;-68
2024/03/20 03:00:29;;;;;;;8.20;5.90;;;;;;;8.37;68.41;96459.75;4988172;28;20827;-71
2024/03/20 03:02:56;;;;;;;9.57;6.17;;;;;;;8.28;68.82;96460.91;4988018;28;20259;-70
2024/03/20 03:05:22;;;;;;;11.70;6.33;;;;;;;8.27;68.97;96453.13;4988153;28;20408;-72
2024/03/20 03:07:48;;;;;;;8.17;6.33;;;;;;;8.50;67.95;96460.19;4988386;28;20428;-70
2024/03/20 03:10:15;;;;;;;8.23;6.30;;;;;;;8.57;66.98;96463.44;4988110;28;20412;-70
2024/03/20 03:12:44;;;;;;;9.73;6.33;;;;;;;8.51;67.49;96466.28;4992834;28;20196;-68
2024/03/20 03:15:10;;;;;;;7.80;6.17;;;;;;;8.41;67.73;96466.63;4993148;28;20408;-70
2024/03/20 03:17:40;;;;;;;9.23;6.40;;;;;;;8.41;67.16;96463.13;4993118;28;20436;-71
2024/03/20 03:20:13;;;;;;;6.47;5.40;;;;;;;8.37;68.10;96472.81;4992677;28;20197;-71
2024/03/20 03:22:39;;;;;;;18.67;7.67;;;;;;;8.39;68.25;96472.78;4989749;28;20411;-70
2024/03/20 03:25:06;;;;;;;19.50;7.30;;;;;;;8.47;67.42;96469.00;4986400;28;20478;-69
2024/03/20 03:27:31;;;;;;;6.90;6.20;;;;;;;8.47;66.75;96469.00;4987698;28;20205;-68
2024/03/20 03:29:56;;;;;;;7.57;6.60;;;;;;;8.42;67.49;96472.69;4987034;28;20427;-70
2024/03/20 03:32:22;;;;;;;8.97;7.63;;;;;;;8.36;67.18;96470.25;4987481;28;20173;-71
2024/03/20 03:34:47;;;;;;;8.97;7.57;;;;;;;8.30;67.49;96475.69;5018544;28;20283;-70
2024/03/20 03:37:13;;;;;;;8.97;7.17;;;;;;;8.37;67.37;96479.81;4987328;28;20295;-70
2024/03/20 03:39:38;;;;;;;8.43;7.07;;;;;;;8.34;67.29;96477.28;4987328;28;20205;-71
2024/03/20 03:42:04;;;;;;;10.03;7.50;;;;;;;8.34;66.84;96483.38;4987304;28;20672;-69
2024/03/20 03:44:29;;;;;;;8.63;7.73;;;;;;;8.26;67.49;96486.22;4987668;28;20169;-69
2024/03/20 03:46:54;;;;;;;10.43;6.93;;;;;;;8.41;66.51;96484.91;5018650;28;20791;-70
2024/03/20 03:49:20;;;;;;;11.77;7.70;;;;;;;8.20;67.47;96483.84;4987249;28;20177;-71
2024/03/20 03:51:45;;;;;;;8.27;7.43;;;;;;;8.19;66.90;96489.09;4987356;28;20280;-68
2024/03/20 03:54:11;;;;;;;8.70;7.60;;;;;;;8.10;67.79;96500.72;4986922;28;20169;-70
2024/03/20 03:56:36;;;;;;;11.80;7.70;;;;;;;8.32;67.18;96492.19;4987076;28;20172;-69
2024/03/20 03:59:01;;;;;;;9.37;6.87;;;;;;;8.20;67.35;96485.59;4986983;28;20188;-71
2024/03/20 04:01:27;;;;;;;8.87;7.43;;;;;;;8.19;67.71;96489.09;4987174;28;20181;-71
2024/03/20 04:03:52;;;;;;;11.73;7.20;;;;;;;8.07;67.37;96488.59;4986842;28;20231;-70
2024/03/20 04:06:18;;;;;;;10.33;7.50;;;;;;;8.22;66.92;96489.88;4987324;28;20295;-70
2024/03/20 04:08:44;;;;;;;13.33;8.17;;;;;;;8.15;67.29;96488.38;4987257;28;20639;-68
2024/03/20 04:11:09;;;;;;;10.80;7.90;;;;;;;8.10;66.73;96490.25;4987295;28;20619;-72
2024/03/20 04:13:34;;;;;;;11.47;8.10;;;;;;;8.00;67.25;96494.06;4986445;28;20191;-71
2024/03/20 04:16:00;;;;;;;10.50;7.60;;;;;;;8.03;67.47;96491.34;4986711;28;20172;-71
2024/03/20 04:18:25;;;;;;;9.43;6.73;;;;;;;7.90;68.21;96487.44;4986500;28;20193;-69
2024/03/20 04:20:51;;;;;;;9.23;8.23;;;;;;;7.76;68.35;96480.03;4986251;28;20197;-71
2024/03/20 04:23:17;;;;;;;10.63;8.80;;;;;;;7.78;68.35;96488.69;4985960;28;20247;-71
2024/03/20 04:25:42;;;;;;;9.77;7.40;;;;;;;7.84;67.81;96486.75;4986337;28;20297;-70
2024/03/20 04:28:08;;;;;;;13.30;7.73;;;;;;;7.79;67.86;96486.00;4988184;28;20216;-69
2024/03/20 04:30:33;;;;;;;13.30;7.80;;;;;;;7.83;68.06;96479.78;4990656;28;20180;-70
2024/03/20 04:32:59;;;;;;;9.50;7.50;;;;;;;7.85;68.40;96485.84;4990552;28;20168;-71
2024/03/20 04:35:25;;;;;;;12.33;8.17;;;;;;;7.77;67.72;96481.75;5004315;28;20248;-69
2024/03/20 04:37:50;;;;;;;10.00;7.53;;;;;;;7.59;68.13;96483.19;5005592;28;20215;-70
2024/03/20 04:40:15;;;;;;;9.23;6.80;;;;;;;7.65;68.53;96475.13;5001190;28;20241;-71
2024/03/20 04:42:41;;;;;;;8.80;7.23;;;;;;;7.62;68.97;96476.09;4991524;28;20228;-71
2024/03/20 04:45:09;;;;;;;9.73;7.23;;;;;;;7.63;67.95;96482.19;4990155;28;20169;-70
2024/03/20 04:47:36;;;;;;;9.47;7.67;;;;;;;7.53;68.94;96472.91;4990076;28;21010;-71
2024/03/20 04:50:02;;;;;;;10.10;7.50;;;;;;;7.60;68.82;96477.03;4989703;28;20491;-70
2024/03/20 04:52:27;;;;;;;7.10;6.10;;;;;;;7.67;68.22;96473.34;4989659;28;20559;-71
2024/03/20 04:54:54;;;;;;;10.30;6.93;;;;;;;7.39;68.91;96471.59;4990037;28;20169;-69
2024/03/20 04:57:19;;;;;;;15.00;7.90;;;;;;;7.61;68.03;96468.31;4989936;28;20227;-72
2024/03/20 04:59:45;;;;;;;11.50;8.20;;;;;;;7.56;68.82;96471.06;4989728;28;20566;-71
2024/03/20 05:02:10;;;;;;;9.73;7.37;;;;;;;7.30;69.14;96473.59;4989230;28;20180;-71
2024/03/20 05:04:35;;;;;;;10.33;8.17;;;;;;;7.39;69.38;96479.44;4989153;28;20660;-72
2024/03/20 05:07:01;;;;;;;15.10;7.40;;;;;;;7.43;69.14;96482.78;4989190;28;20177;-71
2024/03/20 05:09:26;;;;;;;19.57;8.40;;;;;;;7.51;67.74;96479.94;4989290;28;20173;-68
2024/03/20 05:11:52;;;;;;;9.43;7.43;;;;;;;7.47;68.03;96483.56;4989579;28;20189;-72
2024/03/20 05:14:17;;;;;;;13.00;7.80;;;;;;;7.53;68.13;96485.97;4990131;28;20571;-71
2024/03/20 05:16:43;;;;;;;11.37;7.80;;;;;;;7.43;68.90;96483.63;4989477;28;20260;-70
2024/03/20 05:19:08;;;;;;;9.70;7.40;;;;;;;7.35;68.42;96490.84;4989903;28;20580;-72
2024/03/20 05:21:34;;;;;;;12.50;8.20;;;;;;;7.43;68.15;96491.47;4989961;28;20168;-70
2024/03/20 05:23:59;;;;;;;10.93;8.57;;;;;;;7.54;68.28;96499.00;4989704;28;20213;-71
2024/03/20 05:26:25;;;;;;;8.90;7.97;;;;;;;7.53;67.75;96492.03;4990409;28;20208;-71
2024/03/20 05:28:51;;;;;;;9.50;8.30;;;;;;;7.46;68.62;96494.91;4990684;28;20258;-69
2024/03/20 05:31:27;;;;;;;13.90;10.17;;;;;;;7.61;68.05;96494.44;4989926;28;20777;-71
2024/03/20 05:33:53;;;;;;;15.27;9.23;;;;;;;7.57;67.76;96498.03;4989800;28;20660;-71
2024/03/20 05:36:19;;;;;;;10.90;8.90;;;;;;;7.73;66.67;96496.66;4989833;28;20416;-70
2024/03/20 05:38:44;;;;;;;11.50;9.10;;;;;;;7.75;67.01;96486.19;4989599;28;20299;-70
2024/03/20 05:41:09;;;;;;;18.33;9.40;;;;;;;7.95;66.33;96496.00;4988849;28;20279;-70
2024/03/20 05:43:35;;;;;;;36.50;11.60;;;;;;;8.18;65.90;96508.31;4989686;28;20640;-71
2024/03/20 05:46:00;;;;;;;21.63;10.30;;;;;;;8.55;63.86;96504.50;4989125;28;20192;-70
2024/03/20 05:48:26;;;;;;;16.77;10.37;;;;;;;8.82;63.32;96505.31;4984333;28;20220;-71
2024/03/20 05:50:51;;;;;;;13.07;9.00;;;;;;;9.26;61.80;96502.84;4988796;28;20177;-69
2024/03/20 05:53:17;;;;;;;15.63;9.43;;;;;;;9.96;59.02;96497.50;4986410;28;20184;-69
2024/03/20 05:55:43;;;;;;;15.00;9.00;;;;;;;10.22;58.11;96506.09;4989626;28;20199;-70
2024/03/20 05:58:08;;;;;;;11.03;8.70;;;;;;;10.62;56.75;96501.00;4989135;28;20436;-68
2024/03/20 06:00:34;;;;;;;10.80;8.00;;;;;;;11.12;56.03;96498.78;4987892;28;20268;-69
2024/03/20 06:02:59;;;;;;;20.00;9.20;;;;;;;11.51;53.87;96508.44;4987605;28;20200;-70
2024/03/20 06:05:24;;;;;;;18.13;10.00;;;;;;;11.55;54.20;96503.88;4987233;28;20176;-71
2024/03/20 06:07:50;;;;;;;12.87;8.40;;;;;;;11.99;52.30;96506.25;4987707;28;20197;-70
2024/03/20 06:10:16;;;;;;;11.97;9.60;;;;;;;12.58;51.50;96507.72;4987477;28;20652;-70
2024/03/20 06:12:42;;;;;;;10.70;9.63;;;;;;;12.85;50.69;96509.88;4986810;28;20203;-71
2024/03/20 06:15:08;;;;;;;10.60;9.60;;;;;;;13.72;48.06;96499.16;4986787;28;20177;-71
2024/03/20 06:17:33;;;;;;;12.40;9.40;;;;;;;13.67;48.26;96507.31;4988272;28;20435;-70
2024/03/20 06:19:59;;;;;;;12.03;9.03;;;;;;;14.09;47.54;96500.63;4986736;28;20211;-70
2024/03/20 06:22:26;;;;;;;13.20;10.03;;;;;;;14.33;46.40;96494.88;4987150;28;20543;-70
2024/03/20 06:24:51;;;;;;;12.07;9.93;;;;;;;14.64;45.72;96501.06;4986304;28;20420;-68
2024/03/20 06:27:17;;;;;;;9.80;8.73;;;;;;;15.42;43.93;96497.19;4985438;28;20478;-70
2024/03/20 06:29:43;;;;;;;13.33;10.03;;;;;;;15.08;44.84;96495.78;4986677;28;20254;-71
2024/03/20 06:32:08;;;;;;;14.17;10.30;;;;;;;15.09;44.33;96499.25;4981603;28;20436;-70
2024/03/20 06:34:34;;;;;;;10.83;9.30;;;;;;;15.26;44.29;96496.47;4989671;28;20763;-68
2024/03/20 06:36:59;;;;;;;12.10;10.37;;;;;;;14.71;44.64;96497.97;4991349;28;20944;-68
2024/03/20 06:39:25;;;;;;;17.83;11.40;;;;;;;15.25;44.48;96502.69;4991466;28;20201;-69
2024/03/20 06:41:50;;;;;;;15.47;10.13;;;;;;;15.59;43.24;96498.81;4986645;28;20269;-69
2024/03/20 06:44:17;;;;;;;13.00;9.07;;;;;;;15.82;42.60;96502.69;4986070;28;20184;-67
2024/03/20 06:46:44;;;;;;;15.20;10.53;;;;;;;15.04;44.27;96502.19;4986883;28;20180;-69
2024/03/20 06:49:10;;;;;;;18.27;10.57;;;;;;;15.12;44.27;96501.72;4977311;28;20492;-69
2024/03/20 06:51:36;;;;;;;14.97;9.87;;;;;;;15.77;43.10;96504.78;4983874;28;20537;-67
2024/03/20 06:54:16;;;;;;;18.00;10.37;;;;;;;17.08;40.29;96498.91;4983736;28;20579;-68
2024/03/20 06:56:47;;;;;;;11.57;9.73;;;;;;;15.33;44.54;96504.84;4984183;28;20440;-69
2024/03/20 06:59:12;;;;;;;14.67;10.37;;;;;;;15.32;44.80;96500.53;4978408;28;20427;-71
2024/03/20 07:01:38;;;;;;;13.30;11.07;;;;;;;15.47;44.98;96502.22;4981544;28;20450;-72
2024/03/20 07:04:03;;;;;;;13.10;10.50;;;;;;;15.06;45.71;96502.09;4986033;28;20318;-71
2024/03/20 07:06:29;;;;;;;13.40;11.00;;;;;;;14.33;47.15;96502.81;4986188;28;20652;-70
2024/03/20 07:08:54;;;;;;;17.60;11.30;;;;;;;13.90;48.22;96510.50;4986035;28;20544;-70
2024/03/20 07:11:20;;;;;;;14.27;10.90;;;;;;;14.55;46.88;96511.22;4986554;28;20299;-69
2024/03/20 07:13:45;;;;;;;11.93;10.67;;;;;;;15.67;44.67;96500.97;4984241;28;20177;-70
2024/03/20 07:16:11;;;;;;;16.53;11.40;;;;;;;16.36;43.20;96509.84;4986805;28;20176;-70
2024/03/20 07:18:36;;;;;;;15.53;11.40;;;;;;;16.18;43.28;96511.00;4986544;28;20197;-70
2024/03/20 07:21:02;;;;;;;16.23;12.53;;;;;;;15.65;44.77;96506.34;4986048;28;20628;-71
2024/03/20 07:23:27;;;;;;;15.27;13.13;;;;;;;15.72;45.07;96509.50;4985845;28;20177;-71
2024/03/20 07:25:53;;;;;;;15.90;14.30;;;;;;;15.44;45.71;96510.34;4987143;28;20217;-68
2024/03/20 07:28:18;;;;;;;16.73;12.33;;;;;;;14.92;47.37;96511.69;4986849;28;20204;-70
2024/03/20 07:30:44;;;;;;;13.97;12.60;;;;;;;15.47;46.12;96507.50;4985784;28;20169;-69
2024/03/20 07:33:10;;;;;;;14.23;12.17;;;;;;;14.34;48.41;96517.72;4984572;28;20911;-70
2024/03/20 07:35:47;;;;;;;14.93;13.13;;;;;;;15.44;46.43;96513.81;4985412;28;20550;-70
2024/03/20 07:38:13;;;;;;;13.53;12.13;;;;;;;15.12;47.03;96507.88;4985911;28;20224;-69
2024/03/20 07:40:40;;;;;;;20.13;13.10;;;;;;;15.17;46.82;96511.09;4986036;28;20959;-68
2024/03/20 07:43:07;;;;;;;15.93;13.10;;;;;;;15.16;47.64;96514.66;4985962;28;21257;-69
2024/03/20 07:45:33;;;;;;;14.60;11.67;;;;;;;15.33;47.85;96521.59;4986207;28;20411;-70
2024/03/20 07:47:59;;;;;;;16.37;11.90;;;;;;;15.57;46.82;96519.22;4985379;28;20432;-69
2024/03/20 07:50:24;;;;;;;14.50;12.30;;;;;;;16.08;45.53;96518.72;4985373;28;20404;-68
2024/03/20 07:52:50;;;;;;;13.97;12.53;;;;;;;15.96;45.83;96517.69;4985426;28;20176;-68
2024/03/20 07:55:15;;;;;;;15.67;12.63;;;;;;;15.74;46.49;96525.31;4986361;28;20169;-69
2024/03/20 07:57:41;;;;;;;14.93;13.50;;;;;;;15.16;47.58;96517.28;4986439;28;20587;-70
2024/03/20 08:00:08;;;;;;;15.73;11.93;;;;;;;15.48;47.88;96526.88;4986352;28;20201;-70
2024/03/20 08:02:34;;;;;;;14.63;12.07;;;;;;;15.15;48.77;96522.69;4985558;28;20189;-68
2024/03/20 08:04:59;;;;;;;16.50;12.83;;;;;;;15.65;47.77;96527.53;4985795;28;20914;-69
2024/03/20 08:07:25;;;;;;;19.63;12.70;;;;;;;15.09;48.06;96529.19;4986115;28;20192;-69
2024/03/20 08:09:50;;;;;;;18.20;13.57;;;;;;;15.64;48.34;96525.00;4986277;28;20179;-69
2024/03/20 08:12:16;;;;;;;13.93;12.50;;;;;;;15.73;47.33;96536.81;4986087;28;20168;-67
2024/03/20 08:14:41;;;;;;;16.93;13.57;;;;;;;14.63;49.70;96537.19;4986268;28;20567;-68
2024/03/20 08:17:07;;;;;;;18.57;14.97;;;;;;;14.66;51.15;96536.16;4986723;28;20279;-71
2024/03/20 08:19:33;;;;;;;13.83;12.30;;;;;;;16.07;47.58;96535.56;4986642;28;20204;-70
2024/03/20 08:21:58;;;;;;;18.50;14.77;;;;;;;15.55;48.43;96539.63;4986324;28;20408;-70
2024/03/20 08:24:24;;;;;;;16.27;14.73;;;;;;;15.75;47.62;96543.69;4985902;28;20177;-68
2024/03/20 08:26:49;;;;;;;17.77;16.00;;;;;;;16.50;46.21;96546.84;4985938;28;20582;-69
2024/03/20 08:29:16;;;;;;;22.93;20.77;;;;;;;14.84;49.80;96545.66;4985845;28;20247;-71
2024/03/20 08:31:41;;;;;;;21.60;19.60;;;;;;;15.57;48.21;96543.03;4985905;28;20173;-70
2024/03/20 08:34:06;;;;;;;20.33;18.20;;;;;;;16.35;46.61;96539.94;4985997;28;20524;-70
2024/03/20 08:36:32;;;;;;;19.70;17.60;;;;;;;16.46;46.15;96544.50;4986253;28;20208;-68
2024/03/20 08:38:57;;;;;;;23.77;20.33;;;;;;;16.14;46.63;96531.56;4986429;28;20204;-70
2024/03/20 08:41:23;;;;;;;29.07;24.23;;;;;;;17.01;45.04;96538.25;4986177;28;20222;-71
2024/03/20 08:43:48;;;;;;;29.83;21.97;;;;;;;17.60;43.83;96536.88;4986377;28;20173;-70
2024/03/20 08:46:14;;;;;;;31.53;24.63;;;;;;;17.91;42.99;96533.81;4987259;28;20177;-70
2024/03/20 08:48:40;;;;;;;27.80;24.93;;;;;;;16.71;45.59;96541.94;4986523;28;20193;-71
2024/03/20 08:51:05;;;;;;;24.63;22.20;;;;;;;16.87;45.50;96548.94;4986708;28;20169;-71
2024/03/20 08:53:32;;;;;;;23.83;21.27;;;;;;;16.34;46.51;96546.16;4986416;28;20658;-67
2024/03/20 08:55:58;;;;;;;19.60;17.53;;;;;;;18.17;42.58;96537.25;4986287;28;20649;-71
2024/03/20 08:58:24;;;;;;;27.43;21.37;;;;;;;16.41;46.17;96536.00;4986260;28;20475;-70
2024/03/20 09:00:49;;;;;;;18.53;16.27;;;;;;;15.99;47.31;96536.03;4986049;28;20487;-71
2024/03/20 09:03:15;;;;;;;18.73;16.93;;;;;;;15.84;48.44;96537.00;4985888;28;20195;-69
2024/03/20 09:05:41;;;;;;;17.30;15.50;;;;;;;15.36;49.51;96536.41;4986143;28;20181;-70
2024/03/20 09:08:10;;;;;;;19.23;15.40;;;;;;;15.66;49.20;96531.00;4985807;28;20943;-69
2024/03/20 09:10:36;;;;;;;15.53;13.93;;;;;;;15.90;49.02;96531.34;4986325;28;20976;-69
2024/03/20 09:13:03;;;;;;;15.43;13.53;;;;;;;16.04;48.38;96530.47;4986088;28;20507;-70
2024/03/20 09:15:29;;;;;;;15.77;14.07;;;;;;;15.29;50.67;96524.50;4988620;28;20408;-70
2024/03/20 09:17:54;;;;;;;16.10;13.80;;;;;;;15.28;50.18;96528.94;4989956;28;20498;-69
2024/03/20 09:20:19;;;;;;;14.90;13.33;;;;;;;16.02;49.22;96530.53;4992205;28;20197;-70
2024/03/20 09:22:49;;;;;;;14.03;12.63;;;;;;;16.70;47.88;96534.09;4991079;28;20271;-69
2024/03/20 09:25:15;;;;;;;15.90;12.57;;;;;;;16.08;48.97;96521.34;4991752;28;20197;-68
2024/03/20 09:27:40;;;;;;;14.63;13.13;;;;;;;16.34;48.43;96527.63;4992661;28;20776;-70
2024/03/20 09:30:07;;;;;;;16.77;13.53;;;;;;;16.71;47.83;96525.22;5001791;28;20168;-71
2024/03/20 09:32:33;;;;;;;16.27;13.37;;;;;;;17.16;46.51;96522.25;5010016;28;20211;-72
2024/03/20 09:34:59;;;;;;;18.10;14.77;;;;;;;16.90;47.18;96522.22;4996793;28;20412;-70
2024/03/20 09:37:26;;;;;;;18.63;14.70;;;;;;;16.81;47.23;96526.31;4994796;28;20533;-69
2024/03/20 09:39:53;;;;;;;18.57;15.40;;;;;;;16.58;47.45;96525.16;4994791;28;20235;-71
2024/03/20 09:42:21;;;;;;;21.60;17.20;;;;;;;16.87;47.25;96517.13;4994290;28;20832;-70
2024/03/20 09:44:47;;;;;;;16.60;14.87;;;;;;;16.77;47.21;96518.63;4989992;28;20422;-70
2024/03/20 09:47:13;;;;;;;23.27;13.70;;;;;;;18.17;44.55;96507.19;4990090;28;20436;-67
2024/03/20 09:49:39;;;;;;;15.07;11.83;;;;;;;17.25;46.68;96511.84;4989682;28;20439;-70
2024/03/20 09:52:08;;;;;;;16.80;14.00;;;;;;;16.84;47.78;96506.72;4989364;28;20416;-69
2024/03/20 09:54:34;;;;;;;15.90;11.97;;;;;;;16.72;47.79;96503.91;4988979;28;20994;-68
2024/03/20 09:57:00;;;;;;;21.53;13.70;;;;;;;16.52;48.05;96505.22;4990168;28;20420;-69
2024/03/20 09:59:25;;;;;;;14.03;12.50;;;;;;;17.20;46.62;96503.38;4989717;28;20200;-69
2024/03/20 10:01:51;;;;;;;13.53;11.97;;;;;;;16.96;47.28;96508.56;4990898;28;20632;-69
2024/03/20 10:04:16;;;;;;;13.40;10.73;;;;;;;16.33;49.40;96506.56;4993722;28;20648;-69
2024/03/20 10:06:42;;;;;;;12.70;11.40;;;;;;;16.63;48.70;96503.66;4992967;28;20169;-69
2024/03/20 10:09:12;;;;;;;12.10;10.90;;;;;;;16.61;48.41;96498.47;4990177;28;20200;-70
2024/03/20 10:11:37;;;;;;;12.77;11.33;;;;;;;16.58;47.59;96503.13;4994889;28;20177;-71
2024/03/20 10:14:04;;;;;;;16.03;11.67;;;;;;;17.11;47.64;96498.69;4992963;28;21206;-70
2024/03/20 10:16:30;;;;;;;21.60;11.33;;;;;;;17.46;46.21;96495.41;4992666;28;20519;-72
2024/03/20 10:18:55;;;;;;;29.97;11.70;;;;;;;18.27;44.75;96483.47;4990865;28;20197;-71
2024/03/20 10:21:21;;;;;;;27.20;10.00;;;;;;;18.48;43.52;96494.31;4989751;28;20466;-69
2024/03/20 10:23:46;;;;;;;10.40;9.30;;;;;;;18.67;43.04;96481.34;4988671;28;20185;-68
2024/03/20 10:26:14;;;;;;;11.10;8.93;;;;;;;18.79;42.02;96485.75;4987598;28;20227;-70
2024/03/20 10:28:41;;;;;;;11.00;6.80;;;;;;;19.11;39.84;96478.94;4989263;28;20488;-71
2024/03/20 10:31:10;;;;;;;16.53;9.20;;;;;;;18.77;41.63;96473.56;4989340;28;20411;-70
2024/03/20 10:33:37;;;;;;;15.13;8.90;;;;;;;18.40;42.36;96479.78;4989962;28;20752;-68
2024/03/20 10:36:04;;;;;;;10.43;6.77;;;;;;;18.94;41.23;96470.44;4989588;28;20942;-69
2024/03/20 10:38:32;;;;;;;13.03;7.33;;;;;;;19.17;40.52;96462.53;4990047;28;20436;-72
2024/03/20 10:40:58;;;;;;;28.37;9.13;;;;;;;18.61;41.32;96471.16;4988860;28;20463;-69
2024/03/20 10:43:25;;;;;;;18.43;10.57;;;;;;;18.46;42.01;96464.34;4988995;28;20673;-71
2024/03/20 10:45:54;;;;;;;10.70;9.43;;;;;;;18.38;43.62;96470.25;4988531;28;20412;-71
2024/03/20 10:48:24;;;;;;;11.80;8.37;;;;;;;17.58;44.46;96475.13;4988396;28;20436;-70
2024/03/20 10:50:51;;;;;;;17.47;8.70;;;;;;;18.06;44.09;96476.09;4988041;28;20415;-69
2024/03/20 10:53:19;;;;;;;13.37;9.77;;;;;;;18.42;42.71;96466.38;4987737;28;20822;-69
2024/03/20 10:55:47;;;;;;;9.80;8.37;;;;;;;18.53;42.85;96465.59;4987861;28;20412;-70
2024/03/20 10:58:15;;;;;;;8.07;6.10;;;;;;;18.22;41.09;96467.03;4988260;28;20432;-71
2024/03/20 11:00:42;;;;;;;9.93;6.47;;;;;;;18.44;41.87;96452.97;4987834;28;20448;-70
2024/03/20 11:03:51;;;;;;;10.90;9.80;;;;;;;17.76;44.63;96461.41;4987559;28;20450;-70
2024/03/20 11:06:26;;;;;;;12.67;8.47;;;;;;;17.84;44.10;96454.72;4988105;28;20405;-70
2024/03/20 11:08:56;;;;;;;29.07;9.57;;;;;;;18.69;42.56;96449.34;4987841;28;20455;-69
2024/03/20 11:11:26;;;;;;;14.10;12.53;;;;;;;18.58;43.40;96450.13;4987700;28;20827;-70
2024/03/20 11:13:51;;;;;;;20.40;13.77;;;;;;;18.31;45.15;96447.75;4987519;28;21065;-69
2024/03/20 11:16:20;;;;;;;15.40;11.50;;;;;;;18.45;44.26;96458.19;4987825;28;20516;-71
2024/03/20 11:18:51;;;;;;;17.80;13.13;;;;;;;17.75;46.45;96457.03;4986433;28;20223;-70
2024/03/20 11:21:19;;;;;;;17.83;11.90;;;;;;;17.78;47.12;96454.16;4987713;28;20502;-71
2024/03/20 11:23:47;;;;;;;11.63;8.70;;;;;;;17.85;44.61;96451.94;4987417;28;20443;-72